Terminal Aerodrome Forecast
Issued by NWS Atlanta, GA

Home | Current Version | Previous Version | Text Only | Print | Product List | Glossary On
Versions: 1 2 3 4 5 6 7 8 9 10 11 12 13 14 15
000
FTUS42 KFFC 270749 AAA
TAFCSG
TAF AMD
KCSG 270749Z 2708/2806 23005KT P6SM SCT015
      TEMPO 2709/2713 BKN008
     FM271600 26008KT P6SM SCT060=

USA.gov is the U.S. government's official web portal to all federal, state and local government web resources and services.